Time;durP1;ratioP1;P1;durP2;ratioP2;P2;SDS_P1;SDS_P2;PMS_P1;PMS_P2;Temp;Humidity;BMP_temperature;BMP_pressure;BME280_temperature;BME280_humidity;BME280_pressure;Samples;Min_cycle;Max_cycle;Signal;HPM_P1;HPM_P2
2023/03/03 00:01:27;;;;;;;128.77;14.57;;;2.40;99.90;;;;;;5061830;28;20088;-71
2023/03/03 00:03:53;;;;;;;148.10;16.48;;;2.30;99.90;;;;;;5066779;28;20048;-71
2023/03/03 00:06:19;;;;;;;112.05;16.45;;;2.30;99.90;;;;;;5059463;28;20051;-71
2023/03/03 00:08:45;;;;;;;114.30;15.95;;;2.20;99.90;;;;;;5049371;28;20036;-71
2023/03/03 00:11:11;;;;;;;147.40;15.80;;;2.20;99.90;;;;;;5043422;28;20044;-71
2023/03/03 00:13:46;;;;;;;183.80;16.90;;;2.20;99.90;;;;;;5066237;28;20176;-71
2023/03/03 00:16:26;;;;;;;139.57;16.27;;;2.10;99.90;;;;;;5063802;28;20582;-71
2023/03/03 00:18:54;;;;;;;221.30;17.90;;;2.00;99.90;;;;;;5048089;28;20642;-71
2023/03/03 00:21:40;;;;;;;194.15;16.77;;;2.00;99.90;;;;;;5065231;28;20568;-71
2023/03/03 00:24:17;;;;;;;156.65;14.77;;;1.90;99.90;;;;;;5060786;28;20063;-71
2023/03/03 00:26:46;;;;;;;190.30;16.38;;;1.90;99.90;;;;;;5064534;28;20075;-71
2023/03/03 00:29:34;;;;;;;100.47;13.73;;;1.90;99.90;;;;;;5051461;28;20036;-71
2023/03/03 00:32:25;;;;;;;220.35;19.35;;;1.90;99.90;;;;;;5068384;28;20442;-71
2023/03/03 00:34:53;;;;;;;123.18;14.57;;;1.90;99.90;;;;;;5056764;28;20135;-71
2023/03/03 00:37:24;;;;;;;93.30;15.05;;;1.80;99.90;;;;;;5065888;28;20032;-71
2023/03/03 00:39:50;;;;;;;198.20;18.55;;;1.80;99.90;;;;;;5058391;28;20109;-71
2023/03/03 00:42:17;;;;;;;222.15;19.90;;;1.80;99.90;;;;;;5051021;28;20144;-71
2023/03/03 00:44:59;;;;;;;163.00;17.33;;;1.80;99.90;;;;;;5046046;28;20123;-71
2023/03/03 00:47:35;;;;;;;296.33;20.25;;;1.80;99.90;;;;;;5063584;28;20039;-71
2023/03/03 00:50:10;;;;;;;291.45;21.20;;;1.70;99.90;;;;;;5068004;28;20043;-71
2023/03/03 00:52:44;;;;;;;220.02;18.45;;;1.70;99.90;;;;;;5062720;28;20430;-71
2023/03/03 00:55:10;;;;;;;191.43;18.98;;;1.60;99.90;;;;;;5049803;28;20032;-71
2023/03/03 00:57:36;;;;;;;166.77;15.52;;;1.60;99.90;;;;;;5047015;28;20098;-71
2023/03/03 01:00:02;;;;;;;215.88;18.13;;;1.50;99.90;;;;;;5065889;28;20755;-71
2023/03/03 01:02:28;;;;;;;138.05;13.73;;;1.40;99.90;;;;;;5062632;28;20028;-71
2023/03/03 01:04:56;;;;;;;92.65;12.85;;;1.40;99.90;;;;;;5042776;28;20036;-71
2023/03/03 01:07:22;;;;;;;167.48;14.73;;;1.40;99.90;;;;;;5063000;28;20058;-71
2023/03/03 01:09:48;;;;;;;130.02;14.13;;;1.30;99.90;;;;;;5046343;28;20036;-71
2023/03/03 01:12:15;;;;;;;152.63;17.20;;;1.30;99.90;;;;;;5041306;28;20451;-71
2023/03/03 01:14:40;;;;;;;255.68;22.17;;;1.30;99.90;;;;;;5052139;28;20035;-71
2023/03/03 01:17:06;;;;;;;196.43;19.88;;;1.30;99.90;;;;;;5069814;28;20517;-71
2023/03/03 01:19:32;;;;;;;255.85;21.42;;;1.30;99.90;;;;;;5070601;28;20040;-71
2023/03/03 01:21:58;;;;;;;319.20;27.25;;;1.30;99.90;;;;;;5065436;28;20046;-71
2023/03/03 01:24:23;;;;;;;252.35;22.58;;;1.20;99.90;;;;;;5067977;28;20538;-70
2023/03/03 01:26:49;;;;;;;246.73;21.17;;;1.10;99.90;;;;;;5071002;28;20519;-71
2023/03/03 01:29:16;;;;;;;258.05;21.58;;;1.10;99.90;;;;;;5069445;28;20130;-71
2023/03/03 01:31:42;;;;;;;275.40;21.20;;;1.10;99.90;;;;;;5069965;28;20134;-71
2023/03/03 01:34:07;;;;;;;255.05;19.98;;;1.00;99.90;;;;;;5060936;28;20557;-71
2023/03/03 01:36:33;;;;;;;131.02;15.82;;;0.90;99.90;;;;;;5067961;28;20109;-71
2023/03/03 01:39:00;;;;;;;197.25;19.33;;;0.90;99.90;;;;;;5087603;28;20134;-71
2023/03/03 01:41:31;;;;;;;161.68;18.90;;;0.80;99.90;;;;;;5088310;28;20043;-71
2023/03/03 01:43:57;;;;;;;161.18;17.25;;;0.80;99.90;;;;;;5065312;28;20043;-71
2023/03/03 01:46:32;;;;;;;156.20;16.17;;;0.60;99.90;;;;;;5052439;28;20309;-71
2023/03/03 01:49:02;;;;;;;202.73;18.13;;;0.60;99.90;;;;;;5086378;28;20459;-71
2023/03/03 01:51:32;;;;;;;118.03;15.25;;;0.50;99.90;;;;;;5067519;28;20040;-71
2023/03/03 01:54:01;;;;;;;111.28;13.70;;;0.50;99.90;;;;;;5065791;28;20185;-71
2023/03/03 01:56:27;;;;;;;100.20;13.18;;;0.40;99.90;;;;;;5069983;28;20097;-71
2023/03/03 01:59:08;;;;;;;178.30;15.10;;;0.40;99.90;;;;;;5069524;28;20404;-71
2023/03/03 02:01:34;;;;;;;123.05;13.35;;;0.30;99.90;;;;;;5068827;28;20048;-71
2023/03/03 02:03:59;;;;;;;100.47;13.95;;;0.30;99.90;;;;;;5067170;28;20800;-70
2023/03/03 02:06:34;;;;;;;97.68;12.38;;;0.20;99.90;;;;;;5063490;28;20036;-71
2023/03/03 02:09:08;;;;;;;174.15;17.10;;;0.20;99.90;;;;;;5063908;28;20064;-71
2023/03/03 02:11:36;;;;;;;105.70;13.15;;;0.10;99.90;;;;;;5061862;28;21342;-71
2023/03/03 02:14:02;;;;;;;89.88;11.57;;;0.00;99.90;;;;;;5063495;28;20052;-71
2023/03/03 02:16:28;;;;;;;121.07;13.63;;;0.00;99.90;;;;;;5060237;28;20503;-71
2023/03/03 02:18:54;;;;;;;127.28;14.38;;;0.00;99.90;;;;;;5047781;28;20032;-71
2023/03/03 02:21:22;;;;;;;52.05;9.38;;;-0.10;99.90;;;;;;5052165;28;20119;-71
2023/03/03 02:24:01;;;;;;;87.70;11.27;;;-0.10;99.90;;;;;;5062213;28;20075;-70
2023/03/03 02:26:29;;;;;;;69.05;10.85;;;-0.10;99.90;;;;;;5059882;28;20488;-71
2023/03/03 02:28:55;;;;;;;76.43;11.55;;;-0.20;99.90;;;;;;5049555;28;20082;-70
2023/03/03 02:31:23;;;;;;;79.38;12.63;;;-0.20;99.90;;;;;;5066863;28;20484;-70
2023/03/03 02:33:50;;;;;;;72.72;11.95;;;-0.20;99.90;;;;;;5065403;28;20036;-71
2023/03/03 02:36:22;;;;;;;72.22;11.38;;;-0.30;99.90;;;;;;5067711;28;20044;-71
2023/03/03 02:38:58;;;;;;;77.72;12.07;;;-0.40;99.90;;;;;;5048598;28;20040;-70
2023/03/03 02:42:05;;;;;;;46.50;10.68;;;-0.40;99.90;;;;;;5047430;28;20044;-70
2023/03/03 02:44:32;;;;;;;46.72;10.07;;;-0.40;99.90;;;;;;5048171;28;20044;-70
2023/03/03 02:46:59;;;;;;;52.17;10.13;;;-0.50;99.90;;;;;;5070006;28;20036;-70
2023/03/03 02:49:27;;;;;;;72.18;11.20;;;-0.50;99.90;;;;;;5064185;28;20401;-70
2023/03/03 02:51:53;;;;;;;89.00;11.90;;;-0.60;99.90;;;;;;5068925;28;20427;-70
2023/03/03 02:54:24;;;;;;;88.78;12.60;;;-0.60;99.90;;;;;;5048331;28;20036;-70
2023/03/03 02:56:49;;;;;;;61.63;11.27;;;-0.60;99.90;;;;;;5050219;28;20083;-70
2023/03/03 02:59:16;;;;;;;33.22;10.10;;;-0.70;99.90;;;;;;5067569;28;20392;-70
2023/03/03 03:01:42;;;;;;;54.78;11.75;;;-0.60;99.90;;;;;;5059990;28;20043;-70
2023/03/03 03:04:16;;;;;;;57.05;10.38;;;-0.60;99.90;;;;;;5068314;28;20395;-70
2023/03/03 03:06:42;;;;;;;;;;;-0.60;99.90;;;;;;5068094;28;20036;-71
2023/03/03 03:09:09;;;;;;;31.05;9.40;;;-0.60;99.90;;;;;;5062555;28;20402;-71
2023/03/03 03:11:35;;;;;;;32.25;9.85;;;-0.60;99.90;;;;;;5051959;28;20040;-70
2023/03/03 03:14:06;;;;;;;25.23;9.73;;;-0.70;99.90;;;;;;5051151;28;20040;-71
2023/03/03 03:16:32;;;;;;;24.67;9.48;;;-0.60;99.90;;;;;;5050770;28;20036;-71
2023/03/03 03:18:59;;;;;;;22.90;9.68;;;-0.60;99.90;;;;;;5045362;28;20090;-70
2023/03/03 03:21:25;;;;;;;25.55;9.63;;;-0.70;99.90;;;;;;5060177;28;20047;-70
2023/03/03 03:23:51;;;;;;;22.08;8.52;;;-0.70;99.90;;;;;;5066156;28;20048;-71
2023/03/03 03:26:16;;;;;;;65.53;13.13;;;-0.70;99.90;;;;;;5060473;28;20047;-70
2023/03/03 03:28:42;;;;;;;25.95;9.40;;;-0.70;99.90;;;;;;5050715;28;20024;-70
2023/03/03 03:31:08;;;;;;;22.88;9.48;;;-0.70;99.90;;;;;;5052736;28;20036;-70
2023/03/03 03:33:34;;;;;;;19.83;9.10;;;-0.70;99.90;;;;;;5067214;28;20039;-70
2023/03/03 03:36:00;;;;;;;27.67;9.90;;;-0.80;99.90;;;;;;5066256;28;20044;-70
2023/03/03 03:38:26;;;;;;;22.00;9.18;;;-0.80;99.90;;;;;;5067954;28;20488;-70
2023/03/03 03:40:53;;;;;;;20.05;9.13;;;-0.80;99.90;;;;;;5068716;28;20036;-70
2023/03/03 03:43:19;;;;;;;18.63;9.07;;;-0.90;99.90;;;;;;5051542;28;20093;-70
2023/03/03 03:45:44;;;;;;;17.40;9.50;;;-0.90;99.90;;;;;;5060071;28;20134;-70
2023/03/03 03:48:11;;;;;;;18.40;9.10;;;-1.00;99.90;;;;;;5036578;28;20047;-70
2023/03/03 03:50:37;;;;;;;17.70;8.60;;;-1.00;99.90;;;;;;5045190;28;20048;-70
2023/03/03 03:53:04;;;;;;;14.20;8.10;;;-1.10;99.90;;;;;;5067876;28;20380;-70
2023/03/03 03:55:30;;;;;;;16.83;8.25;;;-1.10;99.90;;;;;;5062685;28;20044;-71
2023/03/03 03:57:56;;;;;;;16.52;8.38;;;-1.10;99.90;;;;;;5054399;28;20499;-70
2023/03/03 04:00:22;;;;;;;15.35;8.20;;;-1.20;99.90;;;;;;5066452;28;20028;-70
2023/03/03 04:02:49;;;;;;;15.73;8.65;;;-1.20;99.90;;;;;;5048554;28;20169;-70
2023/03/03 04:05:14;;;;;;;17.45;8.95;;;-1.20;99.90;;;;;;5064828;28;20102;-70
2023/03/03 04:07:40;;;;;;;15.65;8.02;;;-1.30;99.90;;;;;;5060994;28;20301;-70
2023/03/03 04:10:06;;;;;;;15.80;8.52;;;-1.30;99.90;;;;;;5064625;28;20044;-70
2023/03/03 04:12:37;;;;;;;17.40;9.80;;;-1.30;99.90;;;;;;5059030;28;20508;-70
2023/03/03 04:15:08;;;;;;;16.85;8.43;;;-1.30;99.90;;;;;;5057569;28;20052;-69
2023/03/03 04:17:33;;;;;;;17.08;8.48;;;-1.40;99.90;;;;;;5066855;28;20430;-69
2023/03/03 04:19:59;;;;;;;15.60;8.40;;;-1.40;99.90;;;;;;5064062;28;20048;-69
2023/03/03 04:22:25;;;;;;;16.40;8.73;;;-1.50;99.90;;;;;;5063459;28;20136;-69
2023/03/03 04:24:51;;;;;;;15.75;8.18;;;-1.50;99.90;;;;;;5060999;28;20113;-68
2023/03/03 04:27:16;;;;;;;16.50;8.48;;;-1.60;99.90;;;;;;5064187;28;20047;-69
2023/03/03 04:29:42;;;;;;;16.45;8.40;;;-1.60;99.90;;;;;;5065391;28;20039;-69
2023/03/03 04:32:08;;;;;;;14.55;8.10;;;-1.60;99.90;;;;;;5068150;28;20048;-69
2023/03/03 04:34:34;;;;;;;16.08;8.25;;;-1.60;99.90;;;;;;5067200;28;20040;-69
2023/03/03 04:37:00;;;;;;;14.20;8.05;;;-1.70;99.90;;;;;;5065393;28;20040;-69
2023/03/03 04:39:27;;;;;;;17.02;8.95;;;-1.70;99.90;;;;;;5065167;28;20055;-69
2023/03/03 04:41:53;;;;;;;16.83;8.90;;;-1.80;99.90;;;;;;5065717;28;20036;-69
2023/03/03 04:44:18;;;;;;;15.82;8.82;;;-1.80;99.90;;;;;;5066938;28;20032;-69
2023/03/03 04:46:44;;;;;;;17.70;9.68;;;-1.80;99.90;;;;;;5067221;28;20882;-69
2023/03/03 04:49:09;;;;;;;17.38;9.25;;;-1.80;99.90;;;;;;5058313;28;20040;-69
2023/03/03 04:51:35;;;;;;;19.13;9.70;;;-1.80;99.90;;;;;;5052719;28;20096;-69
2023/03/03 04:54:01;;;;;;;15.38;8.55;;;-1.80;99.90;;;;;;5048197;28;22114;-69
2023/03/03 04:56:27;;;;;;;17.02;9.27;;;-1.90;99.90;;;;;;5063791;28;20049;-69
2023/03/03 04:58:53;;;;;;;16.58;9.50;;;-1.90;99.90;;;;;;5064033;28;20032;-69
2023/03/03 05:01:19;;;;;;;18.33;10.05;;;-1.90;99.90;;;;;;5065635;28;20409;-69
2023/03/03 05:03:45;;;;;;;15.43;9.25;;;-1.90;99.90;;;;;;5066575;28;20070;-69
2023/03/03 05:06:10;;;;;;;16.52;9.32;;;-2.00;99.90;;;;;;5047562;28;20047;-69
2023/03/03 05:08:36;;;;;;;19.70;9.95;;;-2.00;99.90;;;;;;5050106;28;20036;-69
2023/03/03 05:11:03;;;;;;;19.13;9.88;;;-2.00;99.90;;;;;;5067608;28;20090;-69
2023/03/03 05:13:29;;;;;;;18.75;10.07;;;-2.00;99.90;;;;;;5049651;28;20032;-69
2023/03/03 05:15:55;;;;;;;18.98;9.98;;;-2.00;99.90;;;;;;5066022;28;20041;-69
2023/03/03 05:18:23;;;;;;;19.00;10.30;;;-2.10;99.90;;;;;;5066290;28;20119;-69
2023/03/03 05:20:49;;;;;;;19.75;10.70;;;-2.10;99.90;;;;;;5062661;28;20036;-69
2023/03/03 05:23:15;;;;;;;18.00;10.10;;;-2.10;99.90;;;;;;5064762;28;20082;-69
2023/03/03 05:25:41;;;;;;;20.25;10.00;;;-2.10;99.90;;;;;;5064860;28;20059;-69
2023/03/03 05:28:08;;;;;;;17.50;9.10;;;-2.10;99.90;;;;;;5046841;28;20090;-69
2023/03/03 05:30:35;;;;;;;17.98;9.52;;;-2.10;99.90;;;;;;5064237;28;20687;-69
2023/03/03 05:33:01;;;;;;;18.30;10.00;;;-2.10;99.90;;;;;;5066244;28;20385;-69
2023/03/03 05:35:27;;;;;;;18.95;9.75;;;-2.10;99.90;;;;;;5051277;28;20044;-69
2023/03/03 05:37:54;;;;;;;19.98;9.50;;;-2.10;99.90;;;;;;5083523;28;20067;-70
2023/03/03 05:40:20;;;;;;;21.08;10.45;;;-2.10;99.90;;;;;;5066664;28;20032;-69
2023/03/03 05:42:46;;;;;;;18.48;10.60;;;-2.10;99.90;;;;;;5063907;28;20042;-69
2023/03/03 05:45:12;;;;;;;17.67;9.95;;;-2.20;99.90;;;;;;5039673;28;20040;-69
2023/03/03 05:47:38;;;;;;;18.83;9.57;;;-2.20;99.90;;;;;;5067990;28;20044;-69
2023/03/03 05:50:04;;;;;;;18.45;9.60;;;-2.20;99.90;;;;;;5049870;28;20040;-70
2023/03/03 05:52:30;;;;;;;19.90;9.93;;;-2.20;99.90;;;;;;5046987;28;20461;-69
2023/03/03 05:54:56;;;;;;;19.35;10.35;;;-2.20;99.90;;;;;;5063508;28;20047;-69
2023/03/03 05:57:21;;;;;;;18.73;10.07;;;-2.20;99.90;;;;;;5064743;28;20036;-70
2023/03/03 05:59:47;;;;;;;19.55;10.05;;;-2.20;99.90;;;;;;5048792;28;20039;-69
2023/03/03 06:02:13;;;;;;;19.13;9.80;;;-2.30;99.90;;;;;;5049411;28;20056;-69
2023/03/03 06:04:39;;;;;;;19.75;10.00;;;-2.30;99.90;;;;;;5068590;28;20424;-69
2023/03/03 06:07:04;;;;;;;20.63;11.02;;;-2.30;99.90;;;;;;5069037;28;20519;-70
2023/03/03 06:09:31;;;;;;;18.27;9.82;;;-2.30;99.90;;;;;;5088049;28;20028;-69
2023/03/03 06:11:57;;;;;;;20.48;9.75;;;-2.30;99.90;;;;;;5053637;28;20471;-69
2023/03/03 06:14:23;;;;;;;20.08;10.65;;;-2.40;99.90;;;;;;5081937;28;20036;-70
2023/03/03 06:16:49;;;;;;;19.23;9.50;;;-2.40;99.90;;;;;;5060662;28;20090;-69
2023/03/03 06:19:15;;;;;;;19.95;10.63;;;-2.40;99.90;;;;;;5046455;28;20644;-70
2023/03/03 06:21:41;;;;;;;18.17;9.85;;;-2.40;99.90;;;;;;5063695;28;20064;-70
2023/03/03 06:24:07;;;;;;;19.40;10.40;;;-2.40;99.90;;;;;;5065544;28;20137;-69
2023/03/03 06:26:33;;;;;;;18.27;9.98;;;-2.40;99.90;;;;;;5065866;28;20159;-69
2023/03/03 06:28:59;;;;;;;17.27;9.80;;;-2.40;99.90;;;;;;5065348;28;20127;-70
2023/03/03 06:31:25;;;;;;;19.88;10.00;;;-2.40;99.90;;;;;;5068023;28;20047;-69
2023/03/03 06:33:50;;;;;;;17.35;9.30;;;-2.40;99.90;;;;;;5068655;28;20400;-69
2023/03/03 06:36:17;;;;;;;17.80;9.85;;;-2.40;99.90;;;;;;5085678;28;20043;-70
2023/03/03 06:38:43;;;;;;;19.40;9.95;;;-2.40;99.90;;;;;;5065792;28;20043;-69
2023/03/03 06:41:09;;;;;;;19.38;10.05;;;-2.40;99.90;;;;;;5068842;28;20036;-69
2023/03/03 06:43:35;;;;;;;19.23;10.10;;;-2.40;99.90;;;;;;5053386;28;20046;-69
2023/03/03 06:46:02;;;;;;;19.20;10.63;;;-2.30;99.90;;;;;;5048316;28;20044;-69
2023/03/03 06:48:28;;;;;;;22.35;10.10;;;-2.30;99.90;;;;;;5066562;28;20047;-70
2023/03/03 06:50:54;;;;;;;22.35;10.93;;;-2.30;99.90;;;;;;5053211;28;20638;-69
2023/03/03 06:53:19;;;;;;;18.67;10.18;;;-2.20;99.90;;;;;;5047552;28;20044;-69
2023/03/03 06:55:45;;;;;;;21.27;10.52;;;-2.20;99.90;;;;;;5065222;28;20578;-69
2023/03/03 06:58:16;;;;;;;22.83;11.18;;;-2.20;99.90;;;;;;5069744;28;20031;-70
2023/03/03 07:00:53;;;;;;;22.50;11.68;;;-2.10;99.90;;;;;;5055392;28;20132;-70
2023/03/03 07:03:24;;;;;;;21.50;11.57;;;-2.00;99.90;;;;;;5064809;28;20036;-69
2023/03/03 07:05:52;;;;;;;22.27;11.38;;;-1.90;99.90;;;;;;5067501;28;20143;-70
2023/03/03 07:08:20;;;;;;;20.30;10.77;;;-1.80;99.90;;;;;;5086879;28;20035;-70
2023/03/03 07:10:47;;;;;;;22.33;11.60;;;-1.80;99.90;;;;;;5066417;28;20071;-69
2023/03/03 07:13:19;;;;;;;21.33;10.98;;;-1.70;99.90;;;;;;5066248;28;20062;-70
2023/03/03 07:15:45;;;;;;;21.60;11.48;;;-1.70;99.90;;;;;;5049066;28;20052;-69
2023/03/03 07:18:45;;;;;;;21.38;10.50;;;-1.70;99.90;;;;;;5066318;28;20039;-69
2023/03/03 07:21:30;;;;;;;18.10;10.18;;;-1.70;99.90;;;;;;5065350;28;20044;-70
2023/03/03 07:23:57;;;;;;;19.90;10.55;;;-1.60;99.90;;;;;;5051386;28;20103;-70
2023/03/03 07:26:33;;;;;;;22.67;11.52;;;-1.50;99.90;;;;;;5064767;28;20052;-70
2023/03/03 07:29:13;;;;;;;25.90;11.60;;;-1.50;99.90;;;;;;5063963;28;20033;-69
2023/03/03 07:31:40;;;;;;;20.48;10.65;;;-1.40;99.90;;;;;;5060969;28;20437;-70
2023/03/03 07:34:45;;;;;;;20.27;10.98;;;-1.20;99.90;;;;;;5068580;28;20051;-70
2023/03/03 07:37:37;;;;;;;23.05;12.05;;;-0.90;99.90;;;;;;4993677;28;20057;-70
2023/03/03 07:40:26;;;;;;;24.58;12.88;;;-0.70;99.90;;;;;;4990229;28;20712;-70
2023/03/03 07:42:51;;;;;;;24.73;12.88;;;-0.60;99.90;;;;;;4970212;28;20121;-70
2023/03/03 07:45:26;;;;;;;29.73;13.80;;;-0.50;99.90;;;;;;4970382;28;20208;-70
2023/03/03 07:48:03;;;;;;;22.75;13.30;;;-0.40;99.90;;;;;;4977064;28;20510;-70
2023/03/03 07:50:29;;;;;;;27.95;13.50;;;-0.40;99.90;;;;;;4976198;28;20046;-70
2023/03/03 07:52:58;;;;;;;26.80;13.25;;;-0.30;99.90;;;;;;4978261;28;20074;-70
2023/03/03 07:55:34;;;;;;;25.77;14.07;;;-0.20;99.90;;;;;;4980184;28;20640;-70
2023/03/03 07:58:21;;;;;;;22.88;12.93;;;-0.20;99.90;;;;;;4959163;28;20046;-70
2023/03/03 08:01:44;;;;;;;25.15;13.88;;;-0.10;99.90;;;;;;4976328;28;20109;-70
2023/03/03 08:04:41;;;;;;;28.23;14.20;;;-0.10;99.90;;;;;;4920111;29;20062;-70
2023/03/03 08:07:17;;;;;;;25.73;14.65;;;0.10;99.90;;;;;;4919540;29;20051;-70
2023/03/03 08:09:50;;;;;;;26.88;14.63;;;0.20;99.90;;;;;;4960490;28;20058;-70
2023/03/03 08:12:31;;;;;;;27.95;14.45;;;0.20;99.90;;;;;;5054369;28;20048;-70
2023/03/03 08:15:33;;;;;;;26.48;14.45;;;0.30;99.90;;;;;;5066449;28;20456;-70
2023/03/03 08:18:00;;;;;;;23.10;13.40;;;0.40;99.90;;;;;;5049275;28;20052;-70
2023/03/03 08:20:35;;;;;;;23.73;13.45;;;0.50;99.90;;;;;;5068784;28;20039;-70
2023/03/03 08:23:00;;;;;;;28.75;15.25;;;0.60;99.90;;;;;;5063754;28;20055;-70
2023/03/03 08:25:26;;;;;;;28.23;14.88;;;0.60;99.90;;;;;;5048544;28;20056;-70
2023/03/03 08:27:51;;;;;;;28.23;13.73;;;0.70;99.90;;;;;;5046201;28;20127;-70
2023/03/03 08:30:17;;;;;;;28.20;15.50;;;0.70;99.90;;;;;;5039677;28;20049;-70
2023/03/03 08:32:43;;;;;;;24.77;14.45;;;0.80;99.90;;;;;;5031505;28;20036;-70
2023/03/03 08:35:08;;;;;;;24.80;14.68;;;0.80;99.90;;;;;;5047871;28;20044;-70
2023/03/03 08:37:34;;;;;;;27.05;15.07;;;0.90;99.90;;;;;;5048273;28;20063;-70
2023/03/03 08:40:00;;;;;;;25.25;14.38;;;1.00;99.90;;;;;;5048539;28;20392;-70
2023/03/03 08:42:25;;;;;;;27.27;14.15;;;1.00;99.90;;;;;;5033591;28;20032;-70
2023/03/03 08:44:51;;;;;;;24.77;14.27;;;1.10;99.90;;;;;;5048363;28;20075;-70
2023/03/03 08:47:17;;;;;;;24.55;13.75;;;1.10;99.90;;;;;;5046688;28;20032;-70
2023/03/03 08:49:42;;;;;;;25.77;14.45;;;1.20;99.90;;;;;;5030825;28;20036;-70
2023/03/03 08:52:08;;;;;;;27.35;14.15;;;1.30;99.90;;;;;;5048508;28;20044;-70
2023/03/03 08:54:33;;;;;;;23.73;14.13;;;1.40;99.90;;;;;;5047549;28;20046;-70
2023/03/03 08:56:59;;;;;;;26.65;13.68;;;1.50;99.90;;;;;;5047636;28;20672;-70
2023/03/03 08:59:25;;;;;;;27.77;14.60;;;1.60;99.90;;;;;;5032275;28;20037;-70
2023/03/03 09:01:51;;;;;;;26.25;14.23;;;1.60;99.90;;;;;;5047991;28;20090;-71
2023/03/03 09:04:17;;;;;;;23.95;14.65;;;1.70;99.90;;;;;;5031896;28;20484;-71
2023/03/03 09:06:42;;;;;;;27.27;14.32;;;1.80;99.90;;;;;;5048612;28;20043;-70
2023/03/03 09:09:08;;;;;;;23.13;14.13;;;1.90;99.90;;;;;;5031170;28;20040;-71
2023/03/03 09:11:34;;;;;;;26.75;14.23;;;2.10;99.90;;;;;;5048328;28;20048;-70
2023/03/03 09:14:12;;;;;;;22.80;13.48;;;2.20;99.90;;;;;;5030785;28;20175;-71
2023/03/03 09:16:40;;;;;;;23.48;13.70;;;2.30;99.90;;;;;;5046933;28;20135;-70
2023/03/03 09:19:27;;;;;;;25.15;14.25;;;2.40;99.90;;;;;;5047572;28;20044;-71
2023/03/03 09:21:54;;;;;;;22.20;12.85;;;2.60;99.90;;;;;;5046552;28;20039;-71
2023/03/03 09:24:31;;;;;;;20.70;12.20;;;2.80;99.90;;;;;;5038490;28;20056;-71
2023/03/03 09:26:58;;;;;;;21.02;12.25;;;3.00;99.90;;;;;;5048301;28;20427;-71
2023/03/03 09:29:36;;;;;;;23.90;11.90;;;3.10;99.90;;;;;;5046774;28;20109;-71
2023/03/03 09:32:33;;;;;;;18.73;12.40;;;3.30;99.90;;;;;;5083599;28;20496;-71
2023/03/03 09:35:20;;;;;;;18.88;11.52;;;3.40;99.90;;;;;;5056934;28;20054;-70
2023/03/03 09:37:49;;;;;;;15.45;10.32;;;3.70;99.90;;;;;;5052587;28;20677;-70
2023/03/03 09:40:42;;;;;;;18.00;11.35;;;3.90;99.90;;;;;;5051468;28;20126;-70
2023/03/03 09:43:36;;;;;;;18.20;10.65;;;4.00;99.90;;;;;;5070532;28;20047;-70
2023/03/03 09:46:34;;;;;;;16.65;9.98;;;4.30;99.90;;;;;;5052928;28;20050;-70
2023/03/03 09:49:13;;;;;;;13.52;8.27;;;4.40;99.90;;;;;;5067216;28;20040;-70
2023/03/03 09:51:50;;;;;;;13.65;8.60;;;4.60;99.90;;;;;;5053438;28;20035;-70
2023/03/03 09:54:26;;;;;;;13.88;9.52;;;4.70;99.90;;;;;;5071003;28;20861;-70
2023/03/03 09:57:12;;;;;;;15.32;9.63;;;4.90;99.90;;;;;;5086911;28;20075;-70
2023/03/03 09:59:58;;;;;;;14.77;8.32;;;5.10;99.90;;;;;;5067495;28;20547;-70
2023/03/03 10:02:37;;;;;;;17.30;8.90;;;5.30;99.90;;;;;;5062067;28;20051;-70
2023/03/03 10:05:16;;;;;;;12.48;8.25;;;5.40;99.90;;;;;;5053912;28;20054;-70
2023/03/03 10:08:06;;;;;;;12.15;7.70;;;5.50;99.90;;;;;;5069112;28;20049;-70
2023/03/03 10:11:30;;;;;;;12.30;7.00;;;5.70;99.90;;;;;;5051746;28;20044;-70
2023/03/03 10:14:04;;;;;;;11.73;7.03;;;6.00;99.90;;;;;;4985226;28;20099;-71
2023/03/03 10:16:48;;;;;;;11.05;6.45;;;6.10;99.90;;;;;;4974396;28;20086;-71
2023/03/03 10:19:35;;;;;;;12.23;6.72;;;6.30;99.90;;;;;;4995135;28;20045;-70
2023/03/03 10:22:27;;;;;;;12.07;6.65;;;6.50;99.90;;;;;;4990351;28;20391;-70
2023/03/03 10:25:22;;;;;;;10.10;6.80;;;6.70;99.90;;;;;;4995444;28;20050;-70
2023/03/03 10:28:02;;;;;;;11.45;5.53;;;6.90;99.90;;;;;;4992972;28;20049;-70
2023/03/03 10:30:27;;;;;;;8.50;5.43;;;7.00;99.90;;;;;;5002755;28;20042;-70
2023/03/03 10:33:24;;;;;;;11.57;6.30;;;7.20;99.90;;;;;;5003805;28;20052;-70
2023/03/03 10:36:08;;;;;;;12.18;6.13;;;7.40;99.90;;;;;;4990407;28;20465;-71
2023/03/03 10:39:02;;;;;;;10.50;4.10;;;7.70;99.90;;;;;;5015018;28;20691;-70
2023/03/03 10:41:48;;;;;;;7.25;3.20;;;7.90;99.90;;;;;;4979287;28;20296;-70
2023/03/03 10:44:28;;;;;;;3.85;2.15;;;8.20;99.90;;;;;;5042241;28;20109;-70
2023/03/03 10:47:12;;;;;;;4.90;2.13;;;8.30;99.90;;;;;;5069010;28;20043;-70
2023/03/03 10:49:59;;;;;;;4.40;2.03;;;8.20;99.90;;;;;;5050918;28;20035;-70
2023/03/03 10:52:45;;;;;;;5.82;1.90;;;8.10;99.90;;;;;;5051466;28;20689;-70
2023/03/03 10:55:29;;;;;;;3.70;1.77;;;8.00;99.90;;;;;;5062180;28;20039;-70
2023/03/03 10:58:07;;;;;;;5.07;1.70;;;7.80;99.90;;;;;;5049417;28;20043;-70
2023/03/03 11:00:43;;;;;;;7.60;2.08;;;7.80;99.90;;;;;;5064479;28;20037;-71
2023/03/03 11:03:51;;;;;;;5.22;1.80;;;7.70;99.90;;;;;;5068746;28;20439;-70
2023/03/03 11:06:42;;;;;;;4.68;1.90;;;7.80;99.90;;;;;;5066926;28;20057;-71
2023/03/03 11:09:14;;;;;;;4.72;1.95;;;7.90;99.90;;;;;;5051514;28;20438;-70
2023/03/03 11:11:54;;;;;;;3.63;2.05;;;8.00;99.90;;;;;;5062228;28;20399;-71
2023/03/03 11:14:32;;;;;;;5.45;1.80;;;8.10;99.90;;;;;;5068414;28;20115;-70
2023/03/03 11:17:27;;;;;;;4.47;2.00;;;8.20;99.90;;;;;;5068379;28;20062;-70
2023/03/03 11:20:34;;;;;;;4.32;1.85;;;8.30;99.90;;;;;;5007078;28;20128;-70
2023/03/03 11:23:36;;;;;;;5.78;2.10;;;8.30;99.90;;;;;;5007668;28;20073;-71
2023/03/03 11:26:24;;;;;;;6.70;2.25;;;8.20;99.90;;;;;;4992295;28;20045;-70
2023/03/03 11:29:10;;;;;;;8.07;2.20;;;8.20;99.90;;;;;;4997947;28;20531;-70
2023/03/03 11:31:45;;;;;;;5.50;2.08;;;8.20;99.90;;;;;;4978495;28;20045;-70
2023/03/03 11:34:43;;;;;;;5.35;1.90;;;8.20;99.90;;;;;;5007168;28;20045;-70
2023/03/03 11:37:20;;;;;;;4.03;2.00;;;8.30;99.90;;;;;;5007721;28;20104;-70
2023/03/03 11:39:48;;;;;;;4.15;1.80;;;8.30;99.90;;;;;;5005570;28;20176;-70
2023/03/03 11:42:37;;;;;;;5.95;2.45;;;8.30;99.90;;;;;;5002624;28;20502;-70
2023/03/03 11:45:29;;;;;;;3.33;1.70;;;8.40;99.90;;;;;;5001992;28;20128;-71
2023/03/03 11:48:07;;;;;;;3.95;1.98;;;8.50;99.90;;;;;;5002643;28;20120;-71
2023/03/03 11:51:05;;;;;;;4.90;2.00;;;8.50;99.90;;;;;;5005020;28;20133;-71
2023/03/03 11:53:39;;;;;;;6.57;2.33;;;8.30;99.90;;;;;;5002262;28;20088;-71
2023/03/03 11:56:21;;;;;;;5.15;1.90;;;8.30;99.90;;;;;;5021252;28;20056;-71
2023/03/03 11:59:25;;;;;;;3.28;1.90;;;8.30;99.90;;;;;;5058744;28;20097;-70
2023/03/03 12:02:13;;;;;;;5.35;2.15;;;8.40;99.90;;;;;;5062418;28;20036;-70
2023/03/03 12:05:07;;;;;;;4.60;1.95;;;8.30;99.90;;;;;;5067845;28;20079;-71
2023/03/03 12:07:47;;;;;;;5.60;2.10;;;8.30;99.90;;;;;;5048023;28;20082;-71
2023/03/03 12:10:59;;;;;;;6.35;2.10;;;8.20;99.90;;;;;;5054840;28;20408;-71
2023/03/03 12:13:47;;;;;;;4.82;1.85;;;8.30;99.90;;;;;;5033450;28;20117;-71
2023/03/03 12:16:31;;;;;;;7.68;2.17;;;8.30;99.90;;;;;;5058378;28;20036;-70
2023/03/03 12:19:21;;;;;;;5.65;1.90;;;8.20;99.90;;;;;;5061618;28;20473;-71
2023/03/03 12:21:53;;;;;;;4.32;1.85;;;8.30;99.90;;;;;;5048298;28;20047;-72
2023/03/03 12:24:41;;;;;;;4.47;1.90;;;8.50;99.90;;;;;;5060141;28;20487;-71
2023/03/03 12:27:32;;;;;;;5.47;1.75;;;8.70;99.90;;;;;;5049400;28;20052;-71
2023/03/03 12:30:23;;;;;;;5.60;2.00;;;8.80;99.90;;;;;;5056507;28;20044;-71
2023/03/03 12:32:51;;;;;;;7.60;2.17;;;8.80;99.90;;;;;;5050679;28;20807;-70
2023/03/03 12:35:27;;;;;;;6.07;2.10;;;8.70;99.90;;;;;;5060283;28;20407;-71
2023/03/03 12:38:19;;;;;;;6.07;1.95;;;8.60;99.90;;;;;;5048174;28;20135;-70
2023/03/03 12:41:22;;;;;;;7.78;2.13;;;8.60;99.90;;;;;;5044565;28;20044;-71
2023/03/03 12:44:11;;;;;;;4.82;1.70;;;8.50;99.90;;;;;;5029756;28;20048;-71
2023/03/03 12:46:58;;;;;;;8.45;2.30;;;8.70;99.90;;;;;;5042669;28;20047;-71
2023/03/03 12:49:36;;;;;;;7.57;2.00;;;8.80;99.90;;;;;;5065311;28;20060;-71
2023/03/03 12:52:19;;;;;;;9.10;2.35;;;8.80;99.90;;;;;;5051270;28;20119;-70
2023/03/03 12:55:26;;;;;;;10.63;2.33;;;8.90;99.90;;;;;;5061740;28;20055;-72
2023/03/03 12:58:07;;;;;;;9.95;2.05;;;9.20;99.90;;;;;;5014263;28;20052;-71
2023/03/03 13:01:01;;;;;;;10.65;2.60;;;9.30;99.90;;;;;;5065236;28;20044;-71
2023/03/03 13:04:03;;;;;;;11.98;2.70;;;9.20;99.90;;;;;;5062294;28;20081;-71
2023/03/03 13:06:46;;;;;;;7.45;2.20;;;9.10;99.90;;;;;;5046880;28;20036;-71
2023/03/03 13:09:19;;;;;;;7.95;2.20;;;9.00;99.90;;;;;;5068607;28;20530;-71
2023/03/03 13:11:49;;;;;;;7.15;2.80;;;8.90;99.90;;;;;;5065638;28;20987;-71